Lansing, MI (48919)

5:49 PM EDT on August 24, 2016 (GMT -0400)
Shaw Estates | | Change Station

Elev 869 ft 42.73 °N, 84.54 °W | Updated 2 minutes ago

Mostly Cloudy
Mostly Cloudy
81.5 °F
Feels Like 85 °F
N
5.0
Wind Variable Wind from South
Gusts 8.0 mph

Today
High -- | Low -- °F
--% Chance of Precip.
Yesterday
High -- | Low -- °F
Precip. -- in
Pressure 29.96 in
Visibility 10.0 miles
Clouds Few 2600 ft
Scattered Clouds 3300 ft
Mostly Cloudy 5000 ft
Heat Index 85 °F
Dew Point 68 °F
Humidity 65%
Rainfall 0.09 in
Snow Depth Not available.
6:54 AM 8:25 PM
Waning Gibbous, 53% visible
METAR KLAN 242053Z 21007KT 10SM FEW026 SCT033 BKN050 27/21 A2997 RMK AO2 RAB11E21 SLP144 P0000 60000 T02720211 56009
Pressure 29.96 in
Visibility 10.0 miles
Clouds Few 2600 ft
Scattered Clouds 3300 ft
Mostly Cloudy 5000 ft
Heat Index 85 °F
Dew Point 68 °F
Humidity 65%
Rainfall 0.09 in
Snow Depth Not available.
6:54 AM 8:25 PM
Waning Gibbous, 53% visible
METAR KLAN 242053Z 21007KT 10SM FEW026 SCT033 BKN050 27/21 A2997 RMK AO2 RAB11E21 SLP144 P0000 60000 T02720211 56009

10-Day Weather Forecast

Almanac

Astronomy

Aug. 24, 2016 Rise Set
Actual Time
Civil Twilight
Nautical Twilight
Astronomical Twilight
Moon
Length of Visible Light
Length of Day
Tomorrow will be .
, % of the Moon is Illuminated

Today's Extremes

State Highs State Lows

Community

WunderPhotos

Upload Photos

1,934,722 photos uploaded!

WunderBlog® & News

Nearby

Air Quality

  Air Quality AQ Index Pollutant
Not available.

Snow Depth

Station Depth Elevation

Earthquake Activity

City Distance Mag. Time & Date
Minimum magnitude displayed is 2.5.

Coastal Water Temperatures

Place Temperature

Stations

Nearby Weather Stations

Station Location Temp. Windchill Dew Point Humidity Wind Precip. Elev Updated Type
                   

Watches & Warnings

There are currently no watches in effect.